Santa Monica, CA

3:32 PM PDT on August 19, 2017 (GMT -0700)
Santa Monica Municipal | | Change Station
Active Advisory: Beach Hazard Statement

Elev 174 ft 34.02 °N, 118.45 °W | Updated 41 minutes ago

Clear
Clear
72 °F
Feels Like 72 °F
N
10
Wind Variable Wind from SW

Today
High -- | Low -- °F
--% Chance of Precip.
Yesterday
High -- | Low -- °F
Precip. -- in
Pressure 29.93 in
Visibility 10.0 miles
Clouds Clear
Dew Point 60 °F
Humidity 66%
Rainfall 0.00 in
Snow Depth Not available.
6:18 AM 7:35 PM
Waning Crescent, 5% visible
METAR KSMO 192151Z 23009KT 10SM CLR 22/16 A2993 RMK AO2 SLP133 T02220156
Pressure 29.93 in
Visibility 10.0 miles
Clouds Clear
Dew Point 60 °F
Humidity 66%
Rainfall 0.00 in
Snow Depth Not available.
6:18 AM 7:35 PM
Waning Crescent, 5% visible
METAR KSMO 192151Z 23009KT 10SM CLR 22/16 A2993 RMK AO2 SLP133 T02220156

Get Your Daily Forecast Email!

Thanks for signing up!

Be on the lookout for a verification email in your inbox.

You'll start receiving severe weather alerts in your inbox..

×

10-Day Weather Forecast

Almanac

Astronomy

Aug. 19, 2017 Rise Set
Actual Time
Civil Twilight
Nautical Twilight
Astronomical Twilight
Moon
Length of Visible Light
Length of Day
Tomorrow will be .
, % of the Moon is Illuminated

Today's Extremes

State Highs State Lows

Community

WunderPhotos

Category 6

Welcome to Category 6. This is the collective home for Weather Underground's featured writeups by Dr. Jeff Masters (right), Bob Henson (left), Chris Burt, and other regular contributors.

Nearby

Air Quality

  Air Quality AQ Index Pollutant
Not available.

Snow Depth

Station Depth Elevation

Earthquake Activity

City Distance Mag. Time & Date
Minimum magnitude displayed is 2.5.

Coastal Water Temperatures

Place Temperature

Stations

Nearby Weather Stations

Station Location Temp. Windchill Dew Point Humidity Wind Precip. Elev Updated Type
                   

Watches & Warnings

Beach Hazard Statement
Issued: 9:09 AM PDT Aug. 19, 2017 – National Weather Service

... Beach hazards statement remains in effect from 5 PM PDT this
afternoon through Sunday evening...

* hazards... minor tidal overflow and beach erosion are possible
due to a large high tide around 7 feet. High tides are
expected between 7 and 8 PM.

* Impacts... minor tidal overflow and beach erosion may bring
pooling of sea water to beach and Harbor areas that is
uncommon with normal tidal ranges.

Precautionary/preparedness actions...

A beach hazards statement is issued when threats to beach and
surf zone safety are expected or occurring. Caution should be
used when in or near the water.